createdAt,value
2018-07-28T00:01:16.175Z,6.40
2018-07-28T00:03:47.499Z,5.80
2018-07-28T00:06:19.002Z,5.93
2018-07-28T00:08:50.412Z,6.57
2018-07-28T00:11:21.690Z,5.90
2018-07-28T00:13:53.285Z,6.77
2018-07-28T00:16:24.576Z,6.30
2018-07-28T00:18:56.053Z,6.47
2018-07-28T00:21:27.436Z,6.47
2018-07-28T00:23:59.071Z,5.97
2018-07-28T00:26:30.402Z,6.70
2018-07-28T00:29:02.901Z,6.10
2018-07-28T00:31:34.720Z,5.90
2018-07-28T00:34:08.316Z,6.07
2018-07-28T00:36:40.468Z,5.87
2018-07-28T00:39:15.497Z,5.67
2018-07-28T00:41:47.610Z,6.30
2018-07-28T00:44:21.007Z,6.40
2018-07-28T00:46:52.747Z,6.47
2018-07-28T00:49:24.039Z,6.10
2018-07-28T00:51:55.116Z,6.10
2018-07-28T00:54:26.143Z,6.00
2018-07-28T00:56:57.607Z,5.73
2018-07-28T00:59:28.857Z,6.23
2018-07-28T01:02:00.466Z,6.30
2018-07-28T01:04:31.668Z,5.83
2018-07-28T01:07:03.102Z,6.57
2018-07-28T01:09:34.857Z,6.27
2018-07-28T01:12:06.331Z,6.63
2018-07-28T01:14:37.649Z,6.27
2018-07-28T01:17:09.151Z,6.03
2018-07-28T01:19:40.482Z,5.70
2018-07-28T01:22:11.733Z,6.73
2018-07-28T01:24:43.253Z,6.73
2018-07-28T01:27:14.712Z,5.97
2018-07-28T01:29:46.017Z,6.00
2018-07-28T01:32:17.400Z,6.33
2018-07-28T01:34:48.853Z,5.83
2018-07-28T01:37:20.103Z,5.80
2018-07-28T01:39:51.525Z,6.67
2018-07-28T01:42:23.093Z,6.67
2018-07-28T01:44:54.322Z,5.90
2018-07-28T01:47:25.811Z,6.57
2018-07-28T01:49:56.292Z,6.03
2018-07-28T01:52:27.543Z,6.37
2018-07-28T01:54:59.403Z,6.23
2018-07-28T01:57:30.918Z,6.43
2018-07-28T02:00:02.488Z,5.40
2018-07-28T02:02:33.845Z,6.00
2018-07-28T02:05:04.953Z,6.13
2018-07-28T02:07:36.414Z,5.50
2018-07-28T02:10:08.222Z,7.17
2018-07-28T02:12:39.645Z,5.87
2018-07-28T02:15:11.107Z,6.17
2018-07-28T02:17:42.345Z,5.90
2018-07-28T02:20:13.676Z,6.33
2018-07-28T02:22:44.903Z,5.80
2018-07-28T02:25:16.205Z,6.20
2018-07-28T02:27:47.549Z,6.57
2018-07-28T02:30:18.920Z,6.03
2018-07-28T02:32:49.167Z,6.10
2018-07-28T02:35:20.456Z,6.13
2018-07-28T02:37:51.919Z,6.07
2018-07-28T02:40:23.513Z,6.00
2018-07-28T02:42:54.684Z,6.87
2018-07-28T02:45:26.122Z,6.23
2018-07-28T02:47:57.384Z,6.60
2018-07-28T02:50:28.729Z,6.43
2018-07-28T02:53:00.021Z,6.20
2018-07-28T02:55:31.324Z,6.40
2018-07-28T02:58:02.707Z,5.90
2018-07-28T03:00:32.952Z,6.13
2018-07-28T03:03:04.547Z,6.43
2018-07-28T03:05:35.903Z,6.73
2018-07-28T03:11:17.826Z,7.10
2018-07-28T03:13:49.209Z,7.30
2018-07-28T03:16:21.586Z,6.70
2018-07-28T03:18:52.109Z,7.10
2018-07-28T03:21:28.529Z,6.87
2018-07-28T03:23:59.911Z,6.70
2018-07-28T03:26:30.503Z,6.33
2018-07-28T03:29:01.872Z,6.87
2018-07-28T03:31:33.427Z,5.93
2018-07-28T03:34:04.782Z,6.63
2018-07-28T03:36:35.147Z,7.67
2018-07-28T03:39:08.610Z,7.23
2018-07-28T03:41:39.981Z,6.70
2018-07-28T03:44:11.165Z,7.57
2018-07-28T03:46:42.642Z,6.50
2018-07-28T03:49:13.090Z,7.80
2018-07-28T03:51:44.494Z,6.77
2018-07-28T03:54:15.904Z,7.63
2018-07-28T03:56:47.411Z,7.67
2018-07-28T03:59:18.910Z,7.00
2018-07-28T04:01:50.386Z,6.63
2018-07-28T04:04:27.070Z,7.20
2018-07-28T04:06:58.652Z,7.23
2018-07-28T04:09:29.055Z,7.20
2018-07-28T04:12:00.519Z,8.20
2018-07-28T04:14:31.985Z,8.30
2018-07-28T04:17:02.239Z,7.80
2018-07-28T04:19:33.785Z,7.27
2018-07-28T04:22:05.179Z,7.53
2018-07-28T04:24:36.669Z,7.23
2018-07-28T04:27:07.999Z,7.30
2018-07-28T04:29:38.314Z,7.60
2018-07-28T04:32:09.600Z,8.00
2018-07-28T04:34:40.792Z,7.20
2018-07-28T04:37:12.174Z,7.50
2018-07-28T04:42:36.612Z,6.60
2018-07-28T04:45:08.514Z,7.30
2018-07-28T04:47:38.996Z,7.23
2018-07-28T04:50:10.700Z,6.23
2018-07-28T04:52:41.007Z,6.20
2018-07-28T04:55:12.961Z,6.90
2018-07-28T04:57:44.205Z,6.57
2018-07-28T05:00:15.860Z,6.70
2018-07-28T05:02:47.151Z,5.97
2018-07-28T05:05:18.362Z,5.90
2018-07-28T05:07:49.759Z,6.63
2018-07-28T05:10:21.044Z,6.27
2018-07-28T05:12:53.057Z,6.20
2018-07-28T05:15:24.534Z,6.10
2018-07-28T05:17:55.837Z,6.40
2018-07-28T05:20:27.154Z,5.90
2018-07-28T05:22:58.378Z,6.60
2018-07-28T05:25:29.974Z,6.20
2018-07-28T05:28:01.373Z,6.73
2018-07-28T05:30:32.702Z,5.57
2018-07-28T05:33:04.232Z,6.20
2018-07-28T05:35:35.509Z,6.37
2018-07-28T05:38:07.078Z,6.43
2018-07-28T05:40:38.369Z,6.40
2018-07-28T05:43:09.754Z,5.30
2018-07-28T05:45:42.276Z,6.27
2018-07-28T05:48:14.056Z,6.07
2018-07-28T05:50:45.759Z,6.00
2018-07-28T05:53:17.250Z,6.20
2018-07-28T05:55:48.658Z,6.63
2018-07-28T05:58:19.976Z,6.27
2018-07-28T06:00:51.426Z,6.33
2018-07-28T06:03:22.850Z,6.43
2018-07-28T06:05:54.791Z,7.77
2018-07-28T06:08:26.133Z,6.93
2018-07-28T06:10:57.848Z,6.43
2018-07-28T06:13:29.340Z,6.90
2018-07-28T06:16:00.592Z,7.10
2018-07-28T06:18:31.906Z,6.90
2018-07-28T06:21:03.448Z,6.20
2018-07-28T06:23:34.729Z,7.07
2018-07-28T06:26:06.091Z,7.43
2018-07-28T06:28:37.308Z,7.50
2018-07-28T06:31:08.883Z,7.50
2018-07-28T06:33:40.143Z,7.43
2018-07-28T06:36:10.610Z,7.90
2018-07-28T06:38:41.904Z,7.37
2018-07-28T06:41:13.563Z,6.83
2018-07-28T06:43:45.345Z,8.93
2018-07-28T06:46:16.625Z,7.97
2018-07-28T06:48:47.925Z,7.20
2018-07-28T06:51:19.311Z,7.30
2018-07-28T06:53:52.005Z,7.90
2018-07-28T06:56:26.159Z,7.70
2018-07-28T06:58:57.529Z,8.07
2018-07-28T07:01:30.727Z,7.37
2018-07-28T07:04:02.138Z,7.50
2018-07-28T07:06:32.450Z,6.60
2018-07-28T07:09:04.375Z,7.67
2018-07-28T07:11:35.663Z,6.67
2018-07-28T07:14:07.115Z,7.50
2018-07-28T07:16:38.313Z,6.87
2018-07-28T07:19:09.710Z,6.90
2018-07-28T07:21:40.949Z,8.07
2018-07-28T07:24:12.442Z,6.97
2018-07-28T07:26:43.755Z,8.33
2018-07-28T07:29:14.952Z,7.03
2018-07-28T07:31:46.403Z,7.20
2018-07-28T07:34:17.854Z,7.77
2018-07-28T07:36:49.290Z,7.23
2018-07-28T07:39:20.699Z,8.80
2018-07-28T07:41:52.017Z,8.60
2018-07-28T07:44:23.206Z,7.90
2018-07-28T07:46:54.532Z,9.20
2018-07-28T07:49:25.864Z,8.40
2018-07-28T07:51:57.184Z,8.03
2018-07-28T07:54:28.457Z,8.47
2018-07-28T07:57:00.015Z,8.27
2018-07-28T07:59:31.741Z,7.90
2018-07-28T08:02:03.099Z,7.60
2018-07-28T08:04:34.986Z,8.67
2018-07-28T08:07:06.356Z,8.17
2018-07-28T08:09:37.529Z,8.53
2018-07-28T08:12:09.216Z,8.63
2018-07-28T08:14:40.481Z,6.70
2018-07-28T08:17:11.877Z,6.20
2018-07-28T08:19:43.248Z,5.80
2018-07-28T08:22:14.539Z,4.80
2018-07-28T08:24:46.042Z,4.93
2018-07-28T08:27:17.279Z,5.70
2018-07-28T08:29:48.557Z,5.10
2018-07-28T08:32:20.192Z,4.50
2018-07-28T08:34:51.458Z,3.83
2018-07-28T08:37:22.748Z,3.57
2018-07-28T08:39:53.988Z,4.33
2018-07-28T08:42:25.529Z,4.60
2018-07-28T08:44:57.058Z,3.60
2018-07-28T08:47:29.397Z,4.23
2018-07-28T08:50:00.833Z,3.50
2018-07-28T08:52:32.126Z,4.03
2018-07-28T08:55:03.401Z,3.57
2018-07-28T08:57:34.692Z,3.30
2018-07-28T09:00:07.197Z,3.50
2018-07-28T09:02:38.545Z,3.67
2018-07-28T09:05:09.928Z,3.30
2018-07-28T09:07:41.259Z,3.50
2018-07-28T09:10:12.723Z,3.50
2018-07-28T09:13:30.575Z,4.03
2018-07-28T09:16:01.984Z,3.87
2018-07-28T09:18:33.394Z,3.40
2018-07-28T09:21:04.858Z,4.00
2018-07-28T09:23:38.071Z,3.30
2018-07-28T09:26:13.707Z,3.10
2018-07-28T09:28:44.986Z,3.00
2018-07-28T09:31:16.344Z,3.53
2018-07-28T09:33:47.606Z,2.80
2018-07-28T09:36:18.955Z,3.40
2018-07-28T09:38:50.241Z,3.20
2018-07-28T09:41:23.453Z,3.80
2018-07-28T09:43:54.718Z,3.30
2018-07-28T09:46:28.926Z,3.60
2018-07-28T09:49:00.440Z,3.30
2018-07-28T09:51:32.484Z,3.57
2018-07-28T09:54:03.749Z,3.60
2018-07-28T09:56:35.000Z,3.43
2018-07-28T09:59:06.464Z,3.80
2018-07-28T10:01:38.034Z,4.17
2018-07-28T10:04:09.310Z,3.40
2018-07-28T10:06:40.760Z,4.20
2018-07-28T10:09:13.680Z,3.70
2018-07-28T10:11:45.598Z,3.80
2018-07-28T10:14:16.952Z,4.13
2018-07-28T10:16:48.176Z,3.90
2018-07-28T10:19:19.572Z,3.97
2018-07-28T10:21:50.877Z,4.30
2018-07-28T10:24:22.261Z,3.83
2018-07-28T10:26:53.697Z,4.00
2018-07-28T10:29:24.962Z,3.70
2018-07-28T10:31:56.517Z,4.47
2018-07-28T10:34:27.741Z,5.00
2018-07-28T10:36:59.153Z,3.80
2018-07-28T10:39:30.442Z,4.40
2018-07-28T10:42:01.906Z,4.03
2018-07-28T10:44:33.238Z,4.20
2018-07-28T10:47:04.474Z,4.13
2018-07-28T10:49:36.257Z,5.03
2018-07-28T10:52:07.574Z,4.73
2018-07-28T10:54:38.912Z,4.60
2018-07-28T10:57:10.224Z,4.07
2018-07-28T10:59:41.568Z,4.90
2018-07-28T11:02:13.359Z,4.67
2018-07-28T11:04:44.729Z,5.33
2018-07-28T11:07:16.073Z,6.07
2018-07-28T11:09:47.285Z,6.70
2018-07-28T11:12:18.681Z,6.60
2018-07-28T11:14:49.906Z,6.63
2018-07-28T11:17:21.289Z,7.57
2018-07-28T11:19:51.601Z,6.30
2018-07-28T11:22:22.957Z,7.43
2018-07-28T11:24:54.341Z,7.83
2018-07-28T11:27:25.887Z,7.33
2018-07-28T11:29:57.373Z,7.23
2018-07-28T11:32:38.880Z,6.80
2018-07-28T11:35:20.161Z,6.07
2018-07-28T11:38:05.723Z,7.10
2018-07-28T11:40:47.429Z,6.93
2018-07-28T11:43:28.789Z,6.80
2018-07-28T11:46:00.287Z,6.80
2018-07-28T11:48:31.716Z,6.40
2018-07-28T11:51:03.165Z,6.80
2018-07-28T11:53:34.497Z,7.20
2018-07-28T11:56:06.225Z,6.90
2018-07-28T11:58:38.086Z,7.57
2018-07-28T12:01:09.336Z,6.20
2018-07-28T12:03:45.344Z,5.67
2018-07-28T12:06:16.621Z,5.93
2018-07-28T12:08:48.216Z,5.93
2018-07-28T12:11:19.402Z,6.40
2018-07-28T12:14:04.750Z,5.80
2018-07-28T12:16:36.337Z,5.70
2018-07-28T12:19:07.960Z,6.30
2018-07-28T12:21:39.352Z,6.93
2018-07-28T12:24:10.630Z,5.53
2018-07-28T12:26:42.199Z,6.20
2018-07-28T12:29:13.518Z,5.47
2018-07-28T12:31:45.283Z,6.00
2018-07-28T12:34:16.642Z,6.20
2018-07-28T12:36:48.091Z,5.97
2018-07-28T12:39:19.408Z,7.57
2018-07-28T12:41:50.607Z,6.37
2018-07-28T12:44:22.322Z,6.77
2018-07-28T12:46:53.679Z,6.40
2018-07-28T12:49:25.166Z,6.40
2018-07-28T12:51:56.631Z,6.73
2018-07-28T12:54:27.936Z,6.30
2018-07-28T12:56:59.261Z,5.50
2018-07-28T12:59:30.637Z,7.87
2018-07-28T13:02:02.988Z,8.57
2018-07-28T13:04:34.225Z,9.10
2018-07-28T13:07:05.622Z,9.63
2018-07-28T13:09:36.913Z,10.10
2018-07-28T13:12:08.230Z,10.87
2018-07-28T13:14:48.955Z,11.43
2018-07-28T13:17:20.219Z,11.13
2018-07-28T13:19:51.589Z,10.23
2018-07-28T13:22:23.066Z,9.70
2018-07-28T13:24:54.210Z,9.67
2018-07-28T13:27:27.808Z,8.20
2018-07-28T13:29:59.295Z,10.33
2018-07-28T13:32:30.733Z,9.63
2018-07-28T13:35:02.172Z,8.40
2018-07-28T13:37:33.848Z,8.00
2018-07-28T13:40:05.242Z,7.27
2018-07-28T13:42:36.798Z,8.50
2018-07-28T13:45:08.698Z,6.97
2018-07-28T13:47:40.073Z,5.70
2018-07-28T13:50:11.652Z,6.40
2018-07-28T13:52:43.168Z,7.37
2018-07-28T13:55:14.736Z,6.30
2018-07-28T13:57:46.200Z,7.00
2018-07-28T14:00:17.729Z,5.87
2018-07-28T14:02:49.337Z,5.93
2018-07-28T14:05:20.762Z,6.30
2018-07-28T14:07:52.131Z,5.57
2018-07-28T14:10:23.402Z,5.57
2018-07-28T14:12:54.686Z,4.83
2018-07-28T14:15:26.046Z,5.77
2018-07-28T14:17:57.576Z,4.70
2018-07-28T14:20:29.078Z,4.90
2018-07-28T14:23:00.460Z,5.23
2018-07-28T14:25:31.871Z,4.40
2018-07-28T14:28:03.293Z,4.60
2018-07-28T14:30:34.812Z,3.90
2018-07-28T14:33:06.154Z,2.90
2018-07-28T14:35:37.463Z,2.90
2018-07-28T14:38:14.472Z,2.57
2018-07-28T14:40:46.796Z,2.77
2018-07-28T14:43:18.077Z,3.10
2018-07-28T14:45:49.902Z,2.90
2018-07-28T14:48:21.649Z,4.80
2018-07-28T14:50:53.405Z,5.67
2018-07-28T14:53:25.344Z,5.30
2018-07-28T14:55:58.000Z,5.23
2018-07-28T14:58:29.226Z,7.00
2018-07-28T15:01:00.701Z,7.27
2018-07-28T15:03:32.005Z,6.37
2018-07-28T15:06:03.589Z,7.23
2018-07-28T15:08:34.957Z,6.70
2018-07-28T15:11:05.600Z,8.10
2018-07-28T15:13:36.797Z,8.90
2018-07-28T15:16:08.181Z,8.10
2018-07-28T15:18:39.392Z,9.50
2018-07-28T15:21:10.895Z,9.37
2018-07-28T15:23:41.221Z,10.13
2018-07-28T15:26:13.092Z,10.83
2018-07-28T15:28:44.426Z,9.80
2018-07-28T15:31:15.807Z,8.77
2018-07-28T15:33:47.098Z,9.20
2018-07-28T15:36:18.429Z,8.53
2018-07-28T15:38:49.573Z,8.37
2018-07-28T15:41:21.107Z,9.00
2018-07-28T15:43:52.526Z,8.90
2018-07-28T15:46:25.195Z,8.37
2018-07-28T15:48:56.566Z,7.70
2018-07-28T15:51:30.679Z,8.23
2018-07-28T15:54:02.115Z,8.90
2018-07-28T15:56:34.095Z,7.87
2018-07-28T15:59:05.572Z,9.30
2018-07-28T16:01:37.120Z,8.40
2018-07-28T16:04:08.472Z,8.17
2018-07-28T16:06:39.775Z,7.53
2018-07-28T16:09:12.192Z,6.90
2018-07-28T16:11:43.639Z,5.57
2018-07-28T16:14:14.894Z,5.10
2018-07-28T16:16:45.324Z,4.07
2018-07-28T16:19:16.680Z,3.90
2018-07-28T16:21:47.282Z,4.60
2018-07-28T16:24:18.534Z,4.60
2018-07-28T16:26:49.801Z,4.00
2018-07-28T16:29:21.618Z,3.27
2018-07-28T16:32:04.054Z,3.37
2018-07-28T16:34:35.475Z,2.97
2018-07-28T16:37:06.912Z,4.10
2018-07-28T16:39:38.284Z,4.20
2018-07-28T16:42:09.593Z,4.00
2018-07-28T16:44:41.612Z,4.60
2018-07-28T16:47:13.018Z,9.70
2018-07-28T16:49:44.427Z,9.20
2018-07-28T16:52:15.906Z,39.03
2018-07-28T16:54:58.815Z,6.47
2018-07-28T16:57:30.145Z,10.10
2018-07-28T17:00:01.542Z,17.00
2018-07-28T17:02:32.795Z,4.97
2018-07-28T17:05:04.243Z,4.70
2018-07-28T17:07:35.892Z,4.10
2018-07-28T17:10:07.634Z,3.97
2018-07-28T17:12:39.653Z,3.57
2018-07-28T17:15:11.646Z,4.13
2018-07-28T17:17:43.136Z,4.13
2018-07-28T17:20:14.453Z,3.20
2018-07-28T17:22:46.316Z,3.63
2018-07-28T17:25:17.617Z,4.27
2018-07-28T17:27:49.190Z,2.60
2018-07-28T17:30:21.459Z,3.60
2018-07-28T17:32:52.736Z,3.57
2018-07-28T17:35:24.066Z,3.20
2018-07-28T17:37:55.476Z,2.90
2018-07-28T17:40:27.046Z,2.63
2018-07-28T17:42:58.244Z,2.97
2018-07-28T17:45:29.588Z,2.80
2018-07-28T17:48:01.116Z,2.80
2018-07-28T17:50:32.898Z,2.90
2018-07-28T17:53:04.188Z,2.50
2018-07-28T17:55:35.426Z,2.90
2018-07-28T17:58:06.940Z,2.73
2018-07-28T18:00:38.378Z,3.43
2018-07-28T18:03:09.669Z,2.50
2018-07-28T18:05:42.100Z,3.17
2018-07-28T18:08:13.632Z,3.90
2018-07-28T18:10:46.364Z,2.90
2018-07-28T18:13:17.756Z,2.20
2018-07-28T18:15:49.437Z,2.20
2018-07-28T18:18:20.688Z,2.27
2018-07-28T18:21:19.646Z,4.73
2018-07-28T18:23:50.944Z,2.57
2018-07-28T18:26:22.306Z,1.63
2018-07-28T18:28:52.908Z,2.23
2018-07-28T18:31:25.895Z,2.63
2018-07-28T18:33:57.360Z,2.70
2018-07-28T18:36:32.081Z,1.77
2018-07-28T18:39:02.431Z,1.90
2018-07-28T18:41:34.942Z,2.53
2018-07-28T18:44:06.311Z,1.80
2018-07-28T18:46:37.735Z,2.13
2018-07-28T18:49:11.134Z,1.87
2018-07-28T18:51:42.516Z,2.17
2018-07-28T18:54:13.767Z,2.87
2018-07-28T18:56:45.186Z,2.10
2018-07-28T18:59:16.362Z,2.63
2018-07-28T19:01:47.785Z,2.00
2018-07-28T19:04:19.062Z,2.03
2018-07-28T19:06:50.580Z,2.90
2018-07-28T19:09:26.362Z,2.23
2018-07-28T19:11:57.780Z,2.47
2018-07-28T19:14:33.792Z,1.93
2018-07-28T19:17:05.335Z,2.50
2018-07-28T19:19:36.853Z,1.80
2018-07-28T19:22:13.005Z,1.70
2018-07-28T19:24:44.509Z,1.80
2018-07-28T19:27:21.961Z,2.60
2018-07-28T19:29:53.212Z,1.93
2018-07-28T19:32:24.463Z,2.40
2018-07-28T19:34:55.874Z,1.60
2018-07-28T19:37:28.237Z,2.40
2018-07-28T19:39:59.929Z,1.60
2018-07-28T19:42:35.801Z,1.97
2018-07-28T19:45:07.184Z,1.97
2018-07-28T19:47:38.541Z,1.60
2018-07-28T19:50:09.793Z,1.87
2018-07-28T19:52:41.560Z,1.90
2018-07-28T19:55:12.745Z,1.90
2018-07-28T19:57:44.182Z,1.80
2018-07-28T20:00:15.513Z,1.40
2018-07-28T20:02:46.817Z,2.10
2018-07-28T20:05:18.770Z,1.57
2018-07-28T20:07:51.716Z,1.53
2018-07-28T20:10:25.511Z,1.90
2018-07-28T20:12:57.929Z,1.63
2018-07-28T20:15:29.339Z,1.57
2018-07-28T20:18:00.696Z,1.70
2018-07-28T20:20:32.027Z,1.53
2018-07-28T20:23:03.305Z,2.00
2018-07-28T20:25:33.523Z,1.60
2018-07-28T20:28:05.236Z,1.40
2018-07-28T20:30:36.607Z,1.47
2018-07-28T20:33:08.375Z,2.27
2018-07-28T20:35:39.720Z,1.77
2018-07-28T20:38:11.168Z,1.30
2018-07-28T20:40:43.559Z,2.27
2018-07-28T20:43:15.128Z,1.23
2018-07-28T20:45:47.240Z,1.87
2018-07-28T20:48:18.552Z,1.27
2018-07-28T20:50:49.888Z,1.77
2018-07-28T20:53:21.498Z,1.70
2018-07-28T20:55:52.934Z,1.40
2018-07-28T20:58:24.411Z,1.70
2018-07-28T21:00:55.821Z,2.00
2018-07-28T21:03:27.098Z,1.60
2018-07-28T21:05:58.482Z,1.60
2018-07-28T21:08:30.262Z,1.97
2018-07-28T21:11:01.488Z,2.40
2018-07-28T21:13:32.847Z,1.97
2018-07-28T21:16:04.149Z,1.80
2018-07-28T21:18:35.599Z,1.80
2018-07-28T21:21:07.009Z,1.90
2018-07-28T21:23:38.380Z,1.80
2018-07-28T21:26:09.921Z,1.60
2018-07-28T21:28:41.415Z,1.50
2018-07-28T21:31:12.825Z,1.77
2018-07-28T21:33:44.590Z,1.53
2018-07-28T21:36:15.975Z,1.50
2018-07-28T21:38:47.397Z,1.53
2018-07-28T21:41:18.621Z,2.17
2018-07-28T21:43:50.018Z,1.37
2018-07-28T21:46:21.428Z,2.20
2018-07-28T21:48:52.773Z,1.70
2018-07-28T21:51:24.169Z,2.00
2018-07-28T21:53:55.779Z,1.57
2018-07-28T21:56:30.685Z,1.60
2018-07-28T21:59:02.070Z,1.50
2018-07-28T22:01:35.122Z,1.77
2018-07-28T22:04:06.493Z,1.93
2018-07-28T22:06:37.877Z,1.80
2018-07-28T22:09:09.949Z,2.23
2018-07-28T22:11:41.240Z,2.37
2018-07-28T22:14:12.650Z,1.83
2018-07-28T22:16:44.117Z,2.57
2018-07-28T22:19:15.324Z,3.00
2018-07-28T22:21:47.701Z,1.60
2018-07-28T22:24:19.076Z,1.67
2018-07-28T22:26:50.284Z,1.73
2018-07-28T22:29:21.653Z,1.80
2018-07-28T22:31:52.878Z,2.20
2018-07-28T22:34:24.314Z,1.60
2018-07-28T22:36:55.752Z,1.90
2018-07-28T22:39:27.274Z,1.90
2018-07-28T22:41:58.547Z,2.47
2018-07-28T22:44:29.919Z,1.43
2018-07-28T22:47:01.419Z,2.30
2018-07-28T22:49:32.709Z,2.50
2018-07-28T22:52:04.027Z,2.00
2018-07-28T22:54:35.318Z,2.13
2018-07-28T22:57:06.609Z,1.83
2018-07-28T22:59:37.952Z,2.03
2018-07-28T23:02:09.217Z,2.50
2018-07-28T23:04:40.482Z,2.80
2018-07-28T23:07:11.799Z,1.70
2018-07-28T23:09:43.227Z,2.13
2018-07-28T23:12:14.500Z,2.40
2018-07-28T23:14:45.697Z,2.53
2018-07-28T23:17:17.081Z,2.50
2018-07-28T23:19:52.533Z,2.10
2018-07-28T23:22:23.770Z,2.10
2018-07-28T23:24:55.155Z,2.60
2018-07-28T23:27:26.564Z,2.50
2018-07-28T23:29:57.722Z,2.73
2018-07-28T23:32:29.173Z,2.53
2018-07-28T23:35:00.529Z,3.23
2018-07-28T23:37:32.125Z,3.40
2018-07-28T23:40:03.496Z,2.10
2018-07-28T23:42:35.025Z,2.60
2018-07-28T23:45:07.139Z,1.97
2018-07-28T23:47:38.269Z,2.97
2018-07-28T23:50:10.117Z,2.93
2018-07-28T23:52:41.447Z,2.80
2018-07-28T23:55:12.858Z,2.50
2018-07-28T23:57:44.201Z,2.57
